createdAt,value
2018-12-19T00:01:17.624Z,77.10
2018-12-19T00:03:45.975Z,78.00
2018-12-19T00:06:14.346Z,77.60
2018-12-19T00:08:42.883Z,78.60
2018-12-19T00:11:11.340Z,79.10
2018-12-19T00:13:39.720Z,77.90
2018-12-19T00:16:08.062Z,79.50
2018-12-19T00:18:36.500Z,78.20
2018-12-19T00:21:04.901Z,77.40
2018-12-19T00:23:33.242Z,76.60
2018-12-19T00:26:01.730Z,76.60
2018-12-19T00:28:30.124Z,76.90
2018-12-19T00:30:58.473Z,77.40
2018-12-19T00:33:26.821Z,76.50
2018-12-19T00:35:55.474Z,76.30
2018-12-19T00:38:23.825Z,76.10
2018-12-19T00:40:52.178Z,75.80
2018-12-19T00:43:20.554Z,77.10
2018-12-19T00:45:49.051Z,77.10
2018-12-19T00:48:17.474Z,76.70
2018-12-19T00:50:45.885Z,76.80
2018-12-19T00:53:14.257Z,78.20
2018-12-19T00:55:42.610Z,76.10
2018-12-19T00:58:10.969Z,76.90
2018-12-19T01:00:39.341Z,76.40
2018-12-19T01:03:07.688Z,76.40
2018-12-19T01:05:36.071Z,78.50
2018-12-19T01:08:04.530Z,78.30
2018-12-19T01:10:32.874Z,80.60
2018-12-19T01:13:01.454Z,80.80
2018-12-19T01:15:29.833Z,81.40
2018-12-19T01:17:58.195Z,84.90
2018-12-19T01:20:26.887Z,86.80
2018-12-19T01:22:55.231Z,86.10
2018-12-19T01:25:23.942Z,85.40
2018-12-19T01:27:52.321Z,87.10
2018-12-19T01:30:20.723Z,85.70
2018-12-19T01:32:49.388Z,85.20
2018-12-19T01:35:17.755Z,86.70
2018-12-19T01:37:46.151Z,84.60
2018-12-19T01:40:14.543Z,85.40
2018-12-19T01:42:42.994Z,84.10
2018-12-19T01:45:11.432Z,84.70
2018-12-19T01:47:39.894Z,85.10
2018-12-19T01:50:08.260Z,83.20
2018-12-19T01:52:36.648Z,83.30
2018-12-19T01:55:05.100Z,82.10
2018-12-19T01:57:33.586Z,83.00
2018-12-19T02:00:01.929Z,82.00
2018-12-19T02:02:30.402Z,83.60
2018-12-19T02:04:58.800Z,83.30
2018-12-19T02:07:27.155Z,84.40
2018-12-19T02:09:55.514Z,84.10
2018-12-19T02:12:23.886Z,83.00
2018-12-19T02:14:52.226Z,84.60
2018-12-19T02:17:20.542Z,83.60
2018-12-19T02:19:48.901Z,83.70
2018-12-19T02:22:17.335Z,82.70
2018-12-19T02:24:45.687Z,83.50
2018-12-19T02:27:14.078Z,84.50
2018-12-19T02:29:42.432Z,83.60
2018-12-19T02:32:10.769Z,82.40
2018-12-19T02:34:39.180Z,83.30
2018-12-19T02:37:07.535Z,83.80
2018-12-19T02:39:36.355Z,82.80
2018-12-19T02:42:05.077Z,82.80
2018-12-19T02:44:33.723Z,82.20
2018-12-19T02:47:02.127Z,82.70
2018-12-19T02:49:30.503Z,82.90
2018-12-19T02:51:59.092Z,82.00
2018-12-19T02:54:27.677Z,81.50
2018-12-19T02:56:56.060Z,82.10
2018-12-19T02:59:24.512Z,82.10
2018-12-19T03:01:52.913Z,82.20
2018-12-19T03:04:21.286Z,83.10
2018-12-19T03:06:49.631Z,82.50
2018-12-19T03:09:18.056Z,83.20
2018-12-19T03:11:46.456Z,83.50
2018-12-19T03:14:14.788Z,85.40
2018-12-19T03:16:43.158Z,85.40
2018-12-19T03:19:11.540Z,85.50
2018-12-19T03:21:39.884Z,85.60
2018-12-19T03:24:08.239Z,86.80
2018-12-19T03:26:36.609Z,87.10
2018-12-19T03:29:04.959Z,89.10
2018-12-19T03:31:33.331Z,89.70
2018-12-19T03:34:01.690Z,91.00
2018-12-19T03:36:30.043Z,92.50
2018-12-19T03:38:58.595Z,94.10
2018-12-19T03:41:27.285Z,94.90
2018-12-19T03:43:55.646Z,96.10
2018-12-19T03:46:24.263Z,97.00
2018-12-19T03:48:57.616Z,98.40
2018-12-19T03:51:25.992Z,99.90
2018-12-19T03:53:54.365Z,99.90
2018-12-19T03:56:22.766Z,99.90
2018-12-19T03:58:51.115Z,99.90
2018-12-19T04:01:19.463Z,99.90
2018-12-19T04:03:47.837Z,99.90
2018-12-19T04:06:16.346Z,99.90
2018-12-19T04:08:44.689Z,99.90
2018-12-19T04:11:13.055Z,99.90
2018-12-19T04:13:41.415Z,99.90
2018-12-19T04:16:09.771Z,99.90
2018-12-19T04:18:38.443Z,99.90
2018-12-19T04:21:06.809Z,99.90
2018-12-19T04:23:35.155Z,99.90
2018-12-19T04:26:03.989Z,99.90
2018-12-19T04:28:32.337Z,99.90
2018-12-19T04:31:00.776Z,99.90
2018-12-19T04:33:29.233Z,99.90
2018-12-19T04:35:57.586Z,99.90
2018-12-19T04:38:26.684Z,99.90
2018-12-19T04:40:55.265Z,99.90
2018-12-19T04:43:23.602Z,99.90
2018-12-19T04:45:51.977Z,99.90
2018-12-19T04:48:20.350Z,99.90
2018-12-19T04:50:48.816Z,99.90
2018-12-19T04:53:17.283Z,99.90
2018-12-19T04:55:45.660Z,99.90
2018-12-19T04:58:14.042Z,99.90
2018-12-19T05:00:42.601Z,99.90
2018-12-19T05:03:11.844Z,99.90
2018-12-19T05:05:40.219Z,99.90
2018-12-19T05:08:08.672Z,99.90
2018-12-19T05:10:37.030Z,99.90
2018-12-19T05:13:05.425Z,99.90
2018-12-19T05:15:33.794Z,99.90
2018-12-19T05:18:02.196Z,99.90
2018-12-19T05:20:31.430Z,99.90
2018-12-19T05:22:59.786Z,99.90
2018-12-19T05:25:28.173Z,99.90
2018-12-19T05:27:56.579Z,99.90
2018-12-19T05:30:24.917Z,99.90
2018-12-19T05:32:53.308Z,99.90
2018-12-19T05:35:21.676Z,99.90
2018-12-19T05:37:50.366Z,99.90
2018-12-19T05:40:19.228Z,99.90
2018-12-19T05:42:47.804Z,99.90
2018-12-19T05:45:16.153Z,99.90
2018-12-19T05:47:44.541Z,99.90
2018-12-19T05:50:14.194Z,99.90
2018-12-19T05:52:42.808Z,99.90
2018-12-19T05:55:11.522Z,99.90
2018-12-19T05:57:40.202Z,99.90
2018-12-19T06:00:08.835Z,99.90
2018-12-19T06:02:37.219Z,99.90
2018-12-19T06:05:05.937Z,99.90
2018-12-19T06:07:34.295Z,99.90
2018-12-19T06:10:02.776Z,99.90
2018-12-19T06:12:31.290Z,99.90
2018-12-19T06:14:59.861Z,99.90
2018-12-19T06:17:28.459Z,99.90
2018-12-19T06:19:56.802Z,99.90
2018-12-19T06:24:48.393Z,99.90
2018-12-19T06:27:16.758Z,99.90
2018-12-19T06:29:45.370Z,99.90
2018-12-19T06:32:13.762Z,99.90
2018-12-19T06:34:42.111Z,99.90
2018-12-19T06:37:10.545Z,99.90
2018-12-19T06:39:38.982Z,99.90
2018-12-19T06:42:07.337Z,99.90
2018-12-19T06:44:35.693Z,99.90
2018-12-19T06:47:04.143Z,99.90
2018-12-19T06:49:32.494Z,99.90
2018-12-19T06:52:01.780Z,99.90
2018-12-19T06:54:30.761Z,99.90
2018-12-19T06:56:59.150Z,99.90
2018-12-19T06:59:27.550Z,99.90
2018-12-19T07:01:55.956Z,99.90
2018-12-19T07:05:53.983Z,99.90
2018-12-19T07:08:22.371Z,99.90
2018-12-19T07:10:50.731Z,99.90
2018-12-19T07:13:19.631Z,99.90
2018-12-19T07:15:48.045Z,99.90
2018-12-19T07:18:16.797Z,99.90
2018-12-19T07:20:45.160Z,99.90
2018-12-19T07:23:13.560Z,99.90
2018-12-19T07:25:41.920Z,99.90
2018-12-19T07:28:10.271Z,99.90
2018-12-19T07:30:38.680Z,99.90
2018-12-19T07:33:07.037Z,99.90
2018-12-19T07:35:35.760Z,99.90
2018-12-19T07:38:04.528Z,99.90
2018-12-19T07:40:32.885Z,99.90
2018-12-19T07:43:01.813Z,99.90
2018-12-19T07:45:30.216Z,99.90
2018-12-19T07:47:58.567Z,99.90
2018-12-19T07:50:26.928Z,99.90
2018-12-19T07:52:55.314Z,99.90
2018-12-19T07:55:23.674Z,99.90
2018-12-19T07:57:52.057Z,99.90
2018-12-19T08:00:20.424Z,99.90
2018-12-19T08:02:48.782Z,99.90
2018-12-19T08:05:17.132Z,99.90
2018-12-19T08:07:45.527Z,99.90
2018-12-19T08:10:14.047Z,99.90
2018-12-19T08:12:42.399Z,99.90
2018-12-19T08:15:11.023Z,99.90
2018-12-19T08:17:39.387Z,99.90
2018-12-19T08:20:07.834Z,99.90
2018-12-19T08:22:36.206Z,99.90
2018-12-19T08:25:05.314Z,99.90
2018-12-19T08:27:33.889Z,99.90
2018-12-19T08:30:02.273Z,99.90
2018-12-19T08:32:30.622Z,99.90
2018-12-19T08:34:58.982Z,99.90
2018-12-19T08:37:27.345Z,99.90
2018-12-19T08:39:55.870Z,99.90
2018-12-19T08:42:24.219Z,99.90
2018-12-19T08:44:52.601Z,99.90
2018-12-19T08:47:20.944Z,99.90
2018-12-19T08:49:49.319Z,99.90
2018-12-19T08:52:17.698Z,99.90
2018-12-19T08:54:46.053Z,99.90
2018-12-19T08:57:14.412Z,99.90
2018-12-19T08:59:42.880Z,99.90
2018-12-19T09:02:12.058Z,99.90
2018-12-19T09:04:40.628Z,99.90
2018-12-19T09:07:09.020Z,99.90
2018-12-19T09:09:37.379Z,99.90
2018-12-19T09:12:05.725Z,99.90
2018-12-19T09:14:34.099Z,99.90
2018-12-19T09:17:02.577Z,99.90
2018-12-19T09:19:31.506Z,99.90
2018-12-19T09:22:00.696Z,99.90
2018-12-19T09:24:29.110Z,99.90
2018-12-19T09:26:57.471Z,99.90
2018-12-19T09:29:26.460Z,99.90
2018-12-19T09:31:54.808Z,99.90
2018-12-19T09:34:23.155Z,99.90
2018-12-19T09:36:51.541Z,99.90
2018-12-19T09:39:20.199Z,99.90
2018-12-19T09:41:48.664Z,99.90
2018-12-19T09:44:17.928Z,99.90
2018-12-19T09:46:46.299Z,99.90
2018-12-19T09:49:14.671Z,99.90
2018-12-19T09:51:43.286Z,99.90
2018-12-19T09:54:11.830Z,99.90
2018-12-19T09:56:40.182Z,99.90
2018-12-19T09:59:08.574Z,99.90
2018-12-19T10:01:37.012Z,99.90
2018-12-19T10:04:05.446Z,99.90
2018-12-19T10:06:33.818Z,99.90
2018-12-19T10:09:02.449Z,99.90
2018-12-19T10:11:31.076Z,99.90
2018-12-19T10:13:59.465Z,98.90
2018-12-19T10:16:27.824Z,99.70
2018-12-19T10:18:56.311Z,99.90
2018-12-19T10:21:24.684Z,99.90
2018-12-19T10:23:53.307Z,98.30
2018-12-19T10:26:21.667Z,97.30
2018-12-19T10:28:50.060Z,96.70
2018-12-19T10:31:18.426Z,97.30
2018-12-19T10:33:46.791Z,95.60
2018-12-19T10:36:15.158Z,96.50
2018-12-19T10:38:43.515Z,96.30
2018-12-19T10:41:12.022Z,97.20
2018-12-19T10:43:41.726Z,96.90
2018-12-19T10:46:10.495Z,97.50
2018-12-19T10:48:38.840Z,98.10
2018-12-19T10:51:07.224Z,97.40
2018-12-19T10:53:35.591Z,97.30
2018-12-19T10:56:04.076Z,98.10
2018-12-19T10:58:33.039Z,98.50
2018-12-19T11:01:01.908Z,98.10
2018-12-19T11:03:30.375Z,97.90
2018-12-19T11:05:58.752Z,98.30
2018-12-19T11:08:27.128Z,97.90
2018-12-19T11:10:55.599Z,97.90
2018-12-19T11:13:23.991Z,98.10
2018-12-19T11:15:52.354Z,96.80
2018-12-19T11:18:20.743Z,98.40
2018-12-19T11:20:49.434Z,98.00
2018-12-19T11:23:17.832Z,97.40
2018-12-19T11:25:46.216Z,99.20
2018-12-19T11:28:14.615Z,96.60
2018-12-19T11:30:43.240Z,96.70
2018-12-19T11:33:11.819Z,95.50
2018-12-19T11:35:40.210Z,94.90
2018-12-19T11:38:08.649Z,93.80
2018-12-19T11:40:37.013Z,95.30
2018-12-19T11:43:05.442Z,94.10
2018-12-19T11:45:34.111Z,93.80
2018-12-19T11:48:02.510Z,95.00
2018-12-19T11:50:30.891Z,93.50
2018-12-19T11:52:59.258Z,93.20
2018-12-19T11:55:27.617Z,95.50
2018-12-19T11:57:56.000Z,93.80
2018-12-19T12:00:24.382Z,92.80
2018-12-19T12:02:52.803Z,92.60
2018-12-19T12:05:21.467Z,92.00
2018-12-19T12:07:49.836Z,92.00
2018-12-19T12:10:18.205Z,92.80
2018-12-19T12:12:46.629Z,93.90
2018-12-19T12:15:15.001Z,92.30
2018-12-19T12:17:43.486Z,92.60
2018-12-19T12:20:11.896Z,90.30
2018-12-19T12:22:41.170Z,90.90
2018-12-19T12:25:09.859Z,89.80
2018-12-19T12:27:38.303Z,89.80
2018-12-19T12:30:07.083Z,89.40
2018-12-19T12:32:35.654Z,90.30
2018-12-19T12:35:04.443Z,90.50
2018-12-19T12:37:33.172Z,91.80
2018-12-19T12:40:01.569Z,90.70
2018-12-19T12:42:29.983Z,92.40
2018-12-19T12:44:58.645Z,90.60
2018-12-19T12:47:27.137Z,91.90
2018-12-19T12:49:56.312Z,91.80
2018-12-19T12:52:24.674Z,93.30
2018-12-19T12:54:53.043Z,94.00
2018-12-19T12:57:21.420Z,94.90
2018-12-19T12:59:49.840Z,94.90
2018-12-19T13:02:18.219Z,94.40
2018-12-19T13:04:46.602Z,95.20
2018-12-19T13:07:15.290Z,95.80
2018-12-19T13:09:43.810Z,94.30
2018-12-19T13:12:12.291Z,96.20
2018-12-19T13:14:41.110Z,96.90
2018-12-19T13:17:09.473Z,96.80
2018-12-19T13:19:37.881Z,95.40
2018-12-19T13:22:06.498Z,96.70
2018-12-19T13:24:34.855Z,97.00
2018-12-19T13:27:03.835Z,97.10
2018-12-19T13:29:32.204Z,96.20
2018-12-19T13:32:00.986Z,98.50
2018-12-19T13:34:29.379Z,98.00
2018-12-19T13:36:57.744Z,99.90
2018-12-19T13:39:26.089Z,99.90
2018-12-19T13:41:54.478Z,99.90
2018-12-19T13:44:22.841Z,99.90
2018-12-19T13:46:51.492Z,99.90
2018-12-19T13:49:19.893Z,99.90
2018-12-19T13:51:48.386Z,99.90
2018-12-19T13:54:16.753Z,99.90
2018-12-19T13:56:45.147Z,99.50
2018-12-19T13:59:13.516Z,99.90
2018-12-19T14:01:41.918Z,99.90
2018-12-19T14:04:10.309Z,99.50
2018-12-19T14:06:38.866Z,99.50
2018-12-19T14:09:07.759Z,99.90
2018-12-19T14:11:36.138Z,99.90
2018-12-19T14:14:04.758Z,99.90
2018-12-19T14:16:33.277Z,99.90
2018-12-19T14:19:01.698Z,99.90
2018-12-19T14:21:30.656Z,99.90
2018-12-19T14:23:59.115Z,99.90
2018-12-19T14:26:27.555Z,99.90
2018-12-19T14:28:56.091Z,99.90
2018-12-19T14:31:24.511Z,99.90
2018-12-19T14:33:52.903Z,99.90
2018-12-19T14:36:21.279Z,99.90
2018-12-19T14:38:49.976Z,99.90
2018-12-19T14:41:18.336Z,99.90
2018-12-19T14:43:46.705Z,99.90
2018-12-19T14:46:15.071Z,99.90
2018-12-19T14:48:43.452Z,99.90
2018-12-19T14:51:12.223Z,99.90
2018-12-19T14:53:41.339Z,99.90
2018-12-19T14:56:10.143Z,99.90
2018-12-19T14:58:38.775Z,99.90
2018-12-19T15:01:07.149Z,99.90
2018-12-19T15:03:35.546Z,99.90
2018-12-19T15:06:04.039Z,99.90
2018-12-19T15:08:32.657Z,99.90
2018-12-19T15:11:01.692Z,99.90
2018-12-19T15:13:30.055Z,99.90
2018-12-19T15:16:01.870Z,99.90
2018-12-19T15:18:30.643Z,99.90
2018-12-19T15:20:59.117Z,99.90
2018-12-19T15:23:27.482Z,99.90
2018-12-19T15:25:55.875Z,99.90
2018-12-19T15:28:24.274Z,99.90
2018-12-19T15:30:52.623Z,99.90
2018-12-19T15:33:21.025Z,99.90
2018-12-19T15:35:49.723Z,99.90
2018-12-19T15:38:18.189Z,99.90
2018-12-19T15:40:46.562Z,99.90
2018-12-19T15:43:15.166Z,99.90
2018-12-19T15:45:43.555Z,99.90
2018-12-19T15:48:11.951Z,99.90
2018-12-19T15:50:40.344Z,99.90
2018-12-19T15:53:08.707Z,99.90
2018-12-19T15:55:37.091Z,99.90
2018-12-19T15:58:05.449Z,99.90
2018-12-19T16:00:33.826Z,99.90
2018-12-19T16:03:02.219Z,99.90
2018-12-19T16:05:30.591Z,99.90
2018-12-19T16:07:58.949Z,99.90
2018-12-19T16:10:27.376Z,99.90
2018-12-19T16:12:55.739Z,99.90
2018-12-19T16:15:24.126Z,99.90
2018-12-19T16:17:52.766Z,99.90
2018-12-19T16:20:21.125Z,99.90
2018-12-19T16:22:49.486Z,99.90
2018-12-19T16:25:17.892Z,99.90
2018-12-19T16:27:46.323Z,99.90
2018-12-19T16:30:14.692Z,99.90
2018-12-19T16:32:43.256Z,99.90
2018-12-19T16:35:11.802Z,99.90
2018-12-19T16:37:40.464Z,99.90
2018-12-19T16:40:08.967Z,99.90
2018-12-19T16:42:37.331Z,99.90
2018-12-19T16:45:06.538Z,99.90
2018-12-19T16:47:34.976Z,99.90
2018-12-19T16:50:04.316Z,99.90
2018-12-19T16:52:33.061Z,99.90
2018-12-19T16:55:01.603Z,99.90
2018-12-19T16:57:30.155Z,99.90
2018-12-19T16:59:58.727Z,99.90
2018-12-19T17:02:27.599Z,99.90
2018-12-19T17:04:55.995Z,99.90
2018-12-19T17:07:24.345Z,99.90
2018-12-19T17:09:52.752Z,99.90
2018-12-19T17:12:21.123Z,99.90
2018-12-19T17:14:49.620Z,99.90
2018-12-19T17:17:17.987Z,99.90
2018-12-19T17:19:46.904Z,99.90
2018-12-19T17:22:15.912Z,99.90
2018-12-19T17:24:44.948Z,99.90
2018-12-19T17:27:14.814Z,99.90
2018-12-19T17:29:43.680Z,99.90
2018-12-19T17:32:13.076Z,99.90
2018-12-19T17:34:42.163Z,99.90
2018-12-19T17:37:11.123Z,99.90
2018-12-19T17:39:39.984Z,99.90
2018-12-19T17:42:08.970Z,99.90
2018-12-19T17:44:38.163Z,99.90
2018-12-19T17:47:07.164Z,99.90
2018-12-19T17:49:35.967Z,99.90
2018-12-19T17:52:04.772Z,99.90
2018-12-19T17:54:33.646Z,99.90
2018-12-19T17:57:02.694Z,99.90
2018-12-19T17:59:31.790Z,99.90
2018-12-19T18:02:01.015Z,99.90
2018-12-19T18:04:30.045Z,99.90
2018-12-19T18:06:59.042Z,99.90
2018-12-19T18:09:28.055Z,99.90
2018-12-19T18:11:56.952Z,99.90
2018-12-19T18:14:25.743Z,99.90
2018-12-19T18:16:54.711Z,99.90
2018-12-19T18:19:23.678Z,99.90
2018-12-19T18:21:54.546Z,99.90
2018-12-19T18:24:23.539Z,99.90
2018-12-19T18:26:52.527Z,99.90
2018-12-19T18:29:22.787Z,99.90
2018-12-19T18:31:51.683Z,99.90
2018-12-19T18:34:20.760Z,99.90
2018-12-19T18:36:49.758Z,99.90
2018-12-19T18:39:25.936Z,99.90
2018-12-19T18:41:50.563Z,99.90
2018-12-19T18:44:19.470Z,99.90
2018-12-19T18:46:49.006Z,99.90
2018-12-19T18:49:18.163Z,99.90
2018-12-19T18:51:47.097Z,99.90
2018-12-19T18:54:16.133Z,99.90
2018-12-19T18:56:45.913Z,99.90
2018-12-19T18:59:15.532Z,99.90
2018-12-19T19:01:44.547Z,99.90
2018-12-19T19:04:13.692Z,99.90
2018-12-19T19:06:42.610Z,99.90
2018-12-19T19:09:12.125Z,99.90
2018-12-19T19:11:41.267Z,99.90
2018-12-19T19:14:10.259Z,99.90
2018-12-19T19:16:39.179Z,99.90
2018-12-19T19:19:08.243Z,99.90
2018-12-19T19:21:37.574Z,99.90
2018-12-19T19:24:07.049Z,99.90
2018-12-19T19:26:36.156Z,99.90
2018-12-19T19:29:06.047Z,99.90
2018-12-19T19:31:35.258Z,99.90
2018-12-19T19:34:05.325Z,99.90
2018-12-19T19:36:34.303Z,99.90
2018-12-19T19:39:07.290Z,99.90
2018-12-19T19:41:36.615Z,99.90
2018-12-19T19:44:05.587Z,99.90
2018-12-19T19:46:34.680Z,99.90
2018-12-19T19:49:03.818Z,99.90
2018-12-19T19:51:33.132Z,99.90
2018-12-19T19:54:02.136Z,99.90
2018-12-19T19:56:31.141Z,99.90
2018-12-19T19:59:00.706Z,99.90
2018-12-19T20:01:30.094Z,99.90
2018-12-19T20:03:59.333Z,99.90
2018-12-19T20:06:28.661Z,99.90
2018-12-19T20:08:57.624Z,99.90
2018-12-19T20:11:26.598Z,99.90
2018-12-19T20:13:55.796Z,99.90
2018-12-19T20:16:25.030Z,99.90
2018-12-19T20:18:54.516Z,99.90
2018-12-19T20:21:24.536Z,99.90
2018-12-19T20:23:53.534Z,99.90
2018-12-19T20:26:22.458Z,99.90
2018-12-19T20:28:51.472Z,99.90
2018-12-19T20:31:20.414Z,99.90
2018-12-19T20:33:49.733Z,99.90
2018-12-19T20:36:18.802Z,99.90
2018-12-19T20:38:49.089Z,99.90
2018-12-19T20:41:18.271Z,99.90
2018-12-19T20:43:47.539Z,99.90
2018-12-19T20:46:16.660Z,99.90
2018-12-19T20:48:46.151Z,99.90
2018-12-19T20:51:15.107Z,99.90
2018-12-19T20:53:44.137Z,99.90
2018-12-19T20:56:13.418Z,99.90
2018-12-19T20:58:43.235Z,99.90
2018-12-19T21:01:12.339Z,99.90
2018-12-19T21:03:41.374Z,99.90
2018-12-19T21:06:11.303Z,99.90
2018-12-19T21:08:40.564Z,99.90
2018-12-19T21:11:09.522Z,99.90
2018-12-19T21:13:39.102Z,99.90
2018-12-19T21:16:08.362Z,99.90
2018-12-19T21:18:46.392Z,99.90
2018-12-19T21:21:15.624Z,99.90
2018-12-19T21:23:44.562Z,99.90
2018-12-19T21:26:13.584Z,99.90
2018-12-19T21:28:42.587Z,99.90
2018-12-19T21:31:12.512Z,99.90
2018-12-19T21:33:41.433Z,99.90
2018-12-19T21:36:10.642Z,99.90
2018-12-19T21:38:40.156Z,99.90
2018-12-19T21:41:09.249Z,99.90
2018-12-19T21:43:38.801Z,99.90
2018-12-19T21:46:07.296Z,99.90
2018-12-19T21:48:35.699Z,99.90
2018-12-19T21:51:04.321Z,99.90
2018-12-19T21:53:32.796Z,99.90
2018-12-19T21:56:01.169Z,99.90
2018-12-19T21:58:29.694Z,99.90
2018-12-19T22:00:58.283Z,99.90
2018-12-19T22:03:27.260Z,99.90
2018-12-19T22:05:55.672Z,99.90
2018-12-19T22:08:24.041Z,99.90
2018-12-19T22:10:52.651Z,99.90
2018-12-19T22:13:21.194Z,99.90
2018-12-19T22:15:49.631Z,99.90
2018-12-19T22:18:23.355Z,99.90
2018-12-19T22:20:51.718Z,99.90
2018-12-19T22:23:20.140Z,99.90
2018-12-19T22:25:48.609Z,99.90
2018-12-19T22:28:17.496Z,99.90
2018-12-19T22:30:45.955Z,99.90
2018-12-19T22:33:14.675Z,99.90
2018-12-19T22:35:43.322Z,99.90
2018-12-19T22:38:11.709Z,99.90
2018-12-19T22:40:40.216Z,99.90
2018-12-19T22:43:08.585Z,99.90
2018-12-19T22:45:36.952Z,99.90
2018-12-19T22:48:05.540Z,99.90
2018-12-19T22:50:34.168Z,99.90
2018-12-19T22:53:02.512Z,99.90
2018-12-19T22:55:30.898Z,99.90
2018-12-19T22:57:59.282Z,99.90
2018-12-19T23:00:29.793Z,99.90
2018-12-19T23:03:03.528Z,99.90
2018-12-19T23:05:37.220Z,99.90
2018-12-19T23:08:05.672Z,99.90
2018-12-19T23:10:34.115Z,99.90
2018-12-19T23:13:03.101Z,99.90
2018-12-19T23:15:31.688Z,99.90
2018-12-19T23:18:05.533Z,99.90
2018-12-19T23:20:33.956Z,99.90
2018-12-19T23:23:02.349Z,99.90
2018-12-19T23:25:31.246Z,99.90
2018-12-19T23:27:59.690Z,99.90
2018-12-19T23:30:28.322Z,99.90
2018-12-19T23:32:56.838Z,99.90
2018-12-19T23:35:25.354Z,99.90
2018-12-19T23:37:53.901Z,99.90
2018-12-19T23:40:23.416Z,99.90
2018-12-19T23:42:51.932Z,99.90
2018-12-19T23:45:20.384Z,99.90
2018-12-19T23:47:48.847Z,99.90
2018-12-19T23:50:17.247Z,99.90
2018-12-19T23:52:45.716Z,99.90
2018-12-19T23:55:14.225Z,99.90
2018-12-19T23:57:42.953Z,99.90
